sensor_id;sensor_type;location;lat;lon;timestamp;pressure;altitude;pressure_sealevel;temperature;humidity
15229;BME280;7717;47.792;12.076;2023-04-06T00:00:18;96469.41;;;-3.30;100.00
15229;BME280;7717;47.792;12.076;2023-04-06T00:02:44;96472.78;;;-3.13;100.00
15229;BME280;7717;47.792;12.076;2023-04-06T00:05:09;96465.16;;;-2.99;100.00
15229;BME280;7717;47.792;12.076;2023-04-06T00:07:35;96463.88;;;-2.91;100.00
15229;BME280;7717;47.792;12.076;2023-04-06T00:10:01;96468.34;;;-3.02;100.00
15229;BME280;7717;47.792;12.076;2023-04-06T00:12:26;96470.22;;;-2.98;100.00
15229;BME280;7717;47.792;12.076;2023-04-06T00:14:52;96466.72;;;-3.01;100.00
15229;BME280;7717;47.792;12.076;2023-04-06T00:17:17;96462.56;;;-3.01;100.00
15229;BME280;7717;47.792;12.076;2023-04-06T00:19:42;96471.88;;;-2.98;100.00
15229;BME280;7717;47.792;12.076;2023-04-06T00:22:08;96458.88;;;-3.08;100.00
15229;BME280;7717;47.792;12.076;2023-04-06T00:24:33;96461.78;;;-3.00;100.00
15229;BME280;7717;47.792;12.076;2023-04-06T00:26:59;96461.56;;;-3.04;100.00
15229;BME280;7717;47.792;12.076;2023-04-06T00:29:25;96474.69;;;-3.09;100.00
15229;BME280;7717;47.792;12.076;2023-04-06T00:31:50;96469.84;;;-3.05;100.00
15229;BME280;7717;47.792;12.076;2023-04-06T00:34:16;96463.91;;;-3.08;100.00
15229;BME280;7717;47.792;12.076;2023-04-06T00:36:41;96459.78;;;-3.22;100.00
15229;BME280;7717;47.792;12.076;2023-04-06T00:39:07;96456.13;;;-3.12;100.00
15229;BME280;7717;47.792;12.076;2023-04-06T00:41:32;96453.81;;;-3.09;100.00
15229;BME280;7717;47.792;12.076;2023-04-06T00:43:58;96455.06;;;-3.01;100.00
15229;BME280;7717;47.792;12.076;2023-04-06T00:46:23;96461.38;;;-3.08;100.00
15229;BME280;7717;47.792;12.076;2023-04-06T00:48:49;96457.16;;;-3.09;100.00
15229;BME280;7717;47.792;12.076;2023-04-06T00:51:14;96460.44;;;-3.10;100.00
15229;BME280;7717;47.792;12.076;2023-04-06T00:53:40;96459.16;;;-3.18;100.00
15229;BME280;7717;47.792;12.076;2023-04-06T00:56:06;96454.16;;;-3.34;100.00
15229;BME280;7717;47.792;12.076;2023-04-06T00:58:31;96459.06;;;-3.36;100.00
15229;BME280;7717;47.792;12.076;2023-04-06T01:00:58;96462.00;;;-3.28;100.00
15229;BME280;7717;47.792;12.076;2023-04-06T01:03:23;96460.53;;;-3.39;100.00
15229;BME280;7717;47.792;12.076;2023-04-06T01:05:48;96462.03;;;-3.43;100.00
15229;BME280;7717;47.792;12.076;2023-04-06T01:08:14;96467.19;;;-3.40;100.00
15229;BME280;7717;47.792;12.076;2023-04-06T01:10:40;96443.94;;;-3.54;100.00
15229;BME280;7717;47.792;12.076;2023-04-06T01:13:05;96446.78;;;-3.63;100.00
15229;BME280;7717;47.792;12.076;2023-04-06T01:15:32;96456.44;;;-3.54;100.00
15229;BME280;7717;47.792;12.076;2023-04-06T01:17:58;96454.94;;;-3.50;100.00
15229;BME280;7717;47.792;12.076;2023-04-06T01:20:24;96460.13;;;-3.47;100.00
15229;BME280;7717;47.792;12.076;2023-04-06T01:22:49;96460.78;;;-3.66;100.00
15229;BME280;7717;47.792;12.076;2023-04-06T01:25:15;96454.16;;;-3.95;100.00
15229;BME280;7717;47.792;12.076;2023-04-06T01:27:40;96461.84;;;-3.77;100.00
15229;BME280;7717;47.792;12.076;2023-04-06T01:30:06;96464.16;;;-3.66;100.00
15229;BME280;7717;47.792;12.076;2023-04-06T01:32:32;96458.00;;;-3.71;100.00
15229;BME280;7717;47.792;12.076;2023-04-06T01:34:58;96463.03;;;-3.71;100.00
15229;BME280;7717;47.792;12.076;2023-04-06T01:37:23;96456.56;;;-3.82;100.00
15229;BME280;7717;47.792;12.076;2023-04-06T01:39:48;96453.66;;;-3.75;100.00
15229;BME280;7717;47.792;12.076;2023-04-06T01:42:14;96451.56;;;-3.67;100.00
15229;BME280;7717;47.792;12.076;2023-04-06T01:44:40;96451.00;;;-3.62;100.00
15229;BME280;7717;47.792;12.076;2023-04-06T01:47:06;96445.84;;;-3.65;100.00
15229;BME280;7717;47.792;12.076;2023-04-06T01:49:31;96437.41;;;-3.67;100.00
15229;BME280;7717;47.792;12.076;2023-04-06T01:51:56;96447.31;;;-3.68;100.00
15229;BME280;7717;47.792;12.076;2023-04-06T01:54:22;96446.47;;;-3.69;100.00
15229;BME280;7717;47.792;12.076;2023-04-06T01:56:47;96425.00;;;-3.80;100.00
15229;BME280;7717;47.792;12.076;2023-04-06T01:59:15;96447.06;;;-3.73;100.00
15229;BME280;7717;47.792;12.076;2023-04-06T02:01:40;96452.44;;;-3.82;100.00
15229;BME280;7717;47.792;12.076;2023-04-06T02:04:08;96451.56;;;-3.82;100.00
15229;BME280;7717;47.792;12.076;2023-04-06T02:06:33;96450.47;;;-3.87;100.00
15229;BME280;7717;47.792;12.076;2023-04-06T02:08:59;96454.50;;;-3.89;100.00
15229;BME280;7717;47.792;12.076;2023-04-06T02:11:24;96453.47;;;-3.93;100.00
15229;BME280;7717;47.792;12.076;2023-04-06T02:13:50;96449.50;;;-3.89;100.00
15229;BME280;7717;47.792;12.076;2023-04-06T02:16:15;96454.34;;;-3.77;100.00
15229;BME280;7717;47.792;12.076;2023-04-06T02:18:41;96452.34;;;-3.83;100.00
15229;BME280;7717;47.792;12.076;2023-04-06T02:21:06;96450.91;;;-3.80;100.00
15229;BME280;7717;47.792;12.076;2023-04-06T02:23:35;96460.34;;;-3.74;100.00
15229;BME280;7717;47.792;12.076;2023-04-06T02:26:00;96454.41;;;-3.76;100.00
15229;BME280;7717;47.792;12.076;2023-04-06T02:28:26;96454.75;;;-3.85;100.00
15229;BME280;7717;47.792;12.076;2023-04-06T02:30:51;96446.31;;;-3.87;100.00
15229;BME280;7717;47.792;12.076;2023-04-06T02:33:17;96457.47;;;-3.96;100.00
15229;BME280;7717;47.792;12.076;2023-04-06T02:35:44;96449.78;;;-4.00;100.00
15229;BME280;7717;47.792;12.076;2023-04-06T02:38:11;96462.44;;;-4.11;100.00
15229;BME280;7717;47.792;12.076;2023-04-06T02:40:36;96469.19;;;-4.10;100.00
15229;BME280;7717;47.792;12.076;2023-04-06T02:43:02;96456.94;;;-4.06;100.00
15229;BME280;7717;47.792;12.076;2023-04-06T02:45:27;96450.94;;;-4.09;100.00
15229;BME280;7717;47.792;12.076;2023-04-06T02:47:52;96448.66;;;-4.20;100.00
15229;BME280;7717;47.792;12.076;2023-04-06T02:50:18;96458.81;;;-4.31;100.00
15229;BME280;7717;47.792;12.076;2023-04-06T02:52:43;96453.81;;;-4.31;100.00
15229;BME280;7717;47.792;12.076;2023-04-06T02:55:08;96458.66;;;-4.20;100.00
15229;BME280;7717;47.792;12.076;2023-04-06T02:57:34;96433.91;;;-4.30;100.00
15229;BME280;7717;47.792;12.076;2023-04-06T03:00:00;96453.16;;;-4.14;100.00
15229;BME280;7717;47.792;12.076;2023-04-06T03:02:25;96452.81;;;-4.20;100.00
15229;BME280;7717;47.792;12.076;2023-04-06T03:04:51;96453.00;;;-4.17;100.00
15229;BME280;7717;47.792;12.076;2023-04-06T03:07:16;96452.66;;;-4.23;100.00
15229;BME280;7717;47.792;12.076;2023-04-06T03:09:41;96450.06;;;-4.25;100.00
15229;BME280;7717;47.792;12.076;2023-04-06T03:12:07;96448.41;;;-4.24;100.00
15229;BME280;7717;47.792;12.076;2023-04-06T03:14:32;96456.41;;;-4.30;100.00
15229;BME280;7717;47.792;12.076;2023-04-06T03:16:57;96449.88;;;-4.28;100.00
15229;BME280;7717;47.792;12.076;2023-04-06T03:19:23;96445.75;;;-4.27;100.00
15229;BME280;7717;47.792;12.076;2023-04-06T03:21:48;96446.31;;;-4.31;100.00
15229;BME280;7717;47.792;12.076;2023-04-06T03:24:14;96443.41;;;-4.39;100.00
15229;BME280;7717;47.792;12.076;2023-04-06T03:26:40;96447.44;;;-4.41;100.00
15229;BME280;7717;47.792;12.076;2023-04-06T03:29:06;96458.91;;;-4.45;100.00
15229;BME280;7717;47.792;12.076;2023-04-06T03:31:31;96450.97;;;-4.53;100.00
15229;BME280;7717;47.792;12.076;2023-04-06T03:33:57;96456.91;;;-4.50;100.00
15229;BME280;7717;47.792;12.076;2023-04-06T03:36:22;96456.66;;;-4.55;100.00
15229;BME280;7717;47.792;12.076;2023-04-06T03:38:47;96460.28;;;-4.50;100.00
15229;BME280;7717;47.792;12.076;2023-04-06T03:41:13;96469.94;;;-4.56;100.00
15229;BME280;7717;47.792;12.076;2023-04-06T03:43:38;96465.63;;;-4.44;100.00
15229;BME280;7717;47.792;12.076;2023-04-06T03:46:03;96465.63;;;-4.44;100.00
15229;BME280;7717;47.792;12.076;2023-04-06T03:48:29;96441.75;;;-4.54;100.00
15229;BME280;7717;47.792;12.076;2023-04-06T03:50:54;96466.63;;;-4.55;100.00
15229;BME280;7717;47.792;12.076;2023-04-06T03:53:20;96464.25;;;-4.39;100.00
15229;BME280;7717;47.792;12.076;2023-04-06T03:55:45;96444.59;;;-4.47;100.00
15229;BME280;7717;47.792;12.076;2023-04-06T03:58:11;96471.50;;;-4.43;100.00
15229;BME280;7717;47.792;12.076;2023-04-06T04:00:37;96462.63;;;-4.53;100.00
15229;BME280;7717;47.792;12.076;2023-04-06T04:03:02;96470.38;;;-4.48;100.00
15229;BME280;7717;47.792;12.076;2023-04-06T04:05:28;96467.97;;;-4.47;100.00
15229;BME280;7717;47.792;12.076;2023-04-06T04:07:57;96473.91;;;-4.45;100.00
15229;BME280;7717;47.792;12.076;2023-04-06T04:10:22;96466.72;;;-4.54;100.00
15229;BME280;7717;47.792;12.076;2023-04-06T04:12:47;96472.06;;;-4.62;100.00
15229;BME280;7717;47.792;12.076;2023-04-06T04:15:13;96474.31;;;-4.95;100.00
15229;BME280;7717;47.792;12.076;2023-04-06T04:17:38;96482.94;;;-5.03;100.00
15229;BME280;7717;47.792;12.076;2023-04-06T04:20:04;96487.94;;;-4.75;100.00
15229;BME280;7717;47.792;12.076;2023-04-06T04:22:30;96478.84;;;-4.75;100.00
15229;BME280;7717;47.792;12.076;2023-04-06T04:24:56;96480.22;;;-4.65;100.00
15229;BME280;7717;47.792;12.076;2023-04-06T04:27:21;96474.44;;;-4.79;100.00
15229;BME280;7717;47.792;12.076;2023-04-06T04:29:47;96491.78;;;-4.67;100.00
15229;BME280;7717;47.792;12.076;2023-04-06T04:32:12;96491.97;;;-4.64;100.00
15229;BME280;7717;47.792;12.076;2023-04-06T04:34:38;96494.09;;;-4.70;100.00
15229;BME280;7717;47.792;12.076;2023-04-06T04:37:07;96495.53;;;-4.74;100.00
15229;BME280;7717;47.792;12.076;2023-04-06T04:39:32;96484.19;;;-4.68;100.00
15229;BME280;7717;47.792;12.076;2023-04-06T04:41:58;96489.38;;;-4.65;100.00
15229;BME280;7717;47.792;12.076;2023-04-06T04:44:23;96489.13;;;-4.55;100.00
15229;BME280;7717;47.792;12.076;2023-04-06T04:46:49;96488.34;;;-4.54;100.00
15229;BME280;7717;47.792;12.076;2023-04-06T04:49:14;96485.50;;;-4.60;100.00
15229;BME280;7717;47.792;12.076;2023-04-06T04:51:40;96504.28;;;-4.67;100.00
15229;BME280;7717;47.792;12.076;2023-04-06T04:54:05;96502.44;;;-4.70;100.00
15229;BME280;7717;47.792;12.076;2023-04-06T04:56:30;96502.13;;;-4.61;100.00
15229;BME280;7717;47.792;12.076;2023-04-06T04:58:56;96494.91;;;-4.56;100.00
15229;BME280;7717;47.792;12.076;2023-04-06T05:01:22;96498.97;;;-4.43;100.00
15229;BME280;7717;47.792;12.076;2023-04-06T05:03:47;96488.97;;;-4.43;100.00
15229;BME280;7717;47.792;12.076;2023-04-06T05:06:12;96496.38;;;-4.30;100.00
15229;BME280;7717;47.792;12.076;2023-04-06T05:08:38;96499.16;;;-4.25;100.00
15229;BME280;7717;47.792;12.076;2023-04-06T05:11:03;96494.00;;;-4.13;100.00
15229;BME280;7717;47.792;12.076;2023-04-06T05:13:30;96500.28;;;-4.05;100.00
15229;BME280;7717;47.792;12.076;2023-04-06T05:15:56;96472.28;;;-4.00;100.00
15229;BME280;7717;47.792;12.076;2023-04-06T05:18:21;96496.34;;;-3.87;100.00
15229;BME280;7717;47.792;12.076;2023-04-06T05:20:47;96494.25;;;-3.79;100.00
15229;BME280;7717;47.792;12.076;2023-04-06T05:23:12;96497.69;;;-3.62;100.00
15229;BME280;7717;47.792;12.076;2023-04-06T05:25:38;96492.72;;;-3.46;100.00
15229;BME280;7717;47.792;12.076;2023-04-06T05:28:03;96498.66;;;-3.29;100.00
15229;BME280;7717;47.792;12.076;2023-04-06T05:30:28;96491.03;;;-3.15;100.00
15229;BME280;7717;47.792;12.076;2023-04-06T05:32:54;96490.56;;;-3.08;100.00
15229;BME280;7717;47.792;12.076;2023-04-06T05:35:20;96489.56;;;-2.95;100.00
15229;BME280;7717;47.792;12.076;2023-04-06T05:37:45;96490.25;;;-2.81;100.00
15229;BME280;7717;47.792;12.076;2023-04-06T05:40:11;96483.63;;;-2.81;100.00
15229;BME280;7717;47.792;12.076;2023-04-06T05:42:41;96481.28;;;-2.61;100.00
15229;BME280;7717;47.792;12.076;2023-04-06T05:45:08;96483.72;;;-2.46;100.00
15229;BME280;7717;47.792;12.076;2023-04-06T05:47:34;96477.34;;;-2.23;100.00
15229;BME280;7717;47.792;12.076;2023-04-06T05:50:00;96487.38;;;-2.05;100.00
15229;BME280;7717;47.792;12.076;2023-04-06T05:52:25;96485.47;;;-1.93;100.00
15229;BME280;7717;47.792;12.076;2023-04-06T05:54:51;96480.56;;;-1.73;100.00
15229;BME280;7717;47.792;12.076;2023-04-06T05:57:17;96482.56;;;-1.66;100.00
15229;BME280;7717;47.792;12.076;2023-04-06T05:59:42;96480.72;;;-1.70;100.00
15229;BME280;7717;47.792;12.076;2023-04-06T06:02:08;96482.56;;;-1.66;100.00
15229;BME280;7717;47.792;12.076;2023-04-06T06:04:33;96487.72;;;-1.63;100.00
15229;BME280;7717;47.792;12.076;2023-04-06T06:06:59;96480.06;;;-1.66;100.00
15229;BME280;7717;47.792;12.076;2023-04-06T06:09:25;96489.91;;;-1.53;100.00
15229;BME280;7717;47.792;12.076;2023-04-06T06:11:51;96486.44;;;-1.37;100.00
15229;BME280;7717;47.792;12.076;2023-04-06T06:14:16;96485.81;;;-1.33;100.00
15229;BME280;7717;47.792;12.076;2023-04-06T06:16:42;96489.88;;;-1.17;100.00
15229;BME280;7717;47.792;12.076;2023-04-06T06:19:07;96490.88;;;-1.13;100.00
15229;BME280;7717;47.792;12.076;2023-04-06T06:21:33;96478.78;;;-1.22;100.00
15229;BME280;7717;47.792;12.076;2023-04-06T06:23:58;96475.34;;;-1.04;100.00
15229;BME280;7717;47.792;12.076;2023-04-06T06:26:24;96482.84;;;-0.86;100.00
15229;BME280;7717;47.792;12.076;2023-04-06T06:28:49;96480.81;;;-0.76;100.00
15229;BME280;7717;47.792;12.076;2023-04-06T06:31:15;96487.28;;;-0.61;100.00
15229;BME280;7717;47.792;12.076;2023-04-06T06:33:41;96492.84;;;-0.49;100.00
15229;BME280;7717;47.792;12.076;2023-04-06T06:36:07;96490.06;;;-0.35;100.00
15229;BME280;7717;47.792;12.076;2023-04-06T06:38:33;96486.22;;;-0.27;100.00
15229;BME280;7717;47.792;12.076;2023-04-06T06:40:58;96486.94;;;-0.10;100.00
15229;BME280;7717;47.792;12.076;2023-04-06T06:43:24;96472.88;;;-0.05;100.00
15229;BME280;7717;47.792;12.076;2023-04-06T06:45:49;96481.91;;;0.11;100.00
15229;BME280;7717;47.792;12.076;2023-04-06T06:48:15;96485.84;;;0.25;100.00
15229;BME280;7717;47.792;12.076;2023-04-06T06:50:40;96479.94;;;0.46;100.00
15229;BME280;7717;47.792;12.076;2023-04-06T06:53:06;96475.56;;;0.63;100.00
15229;BME280;7717;47.792;12.076;2023-04-06T06:55:31;96467.22;;;0.86;100.00
15229;BME280;7717;47.792;12.076;2023-04-06T06:57:56;96472.59;;;0.96;100.00
15229;BME280;7717;47.792;12.076;2023-04-06T07:00:22;96469.44;;;1.01;100.00
15229;BME280;7717;47.792;12.076;2023-04-06T07:02:47;96469.59;;;1.06;100.00
15229;BME280;7717;47.792;12.076;2023-04-06T07:05:13;96460.97;;;1.46;100.00
15229;BME280;7717;47.792;12.076;2023-04-06T07:07:39;96472.38;;;1.85;100.00
15229;BME280;7717;47.792;12.076;2023-04-06T07:10:05;96470.94;;;2.19;100.00
15229;BME280;7717;47.792;12.076;2023-04-06T07:12:30;96464.59;;;2.30;100.00
15229;BME280;7717;47.792;12.076;2023-04-06T07:14:56;96455.19;;;2.26;100.00
15229;BME280;7717;47.792;12.076;2023-04-06T07:17:25;96451.44;;;2.40;100.00
15229;BME280;7717;47.792;12.076;2023-04-06T07:19:50;96455.69;;;2.41;100.00
15229;BME280;7717;47.792;12.076;2023-04-06T07:22:16;96458.97;;;2.39;100.00
15229;BME280;7717;47.792;12.076;2023-04-06T07:24:41;96442.75;;;2.59;100.00
15229;BME280;7717;47.792;12.076;2023-04-06T07:27:07;96443.09;;;2.99;100.00
15229;BME280;7717;47.792;12.076;2023-04-06T07:29:32;96442.06;;;3.22;100.00
15229;BME280;7717;47.792;12.076;2023-04-06T07:31:58;96441.16;;;3.51;100.00
15229;BME280;7717;47.792;12.076;2023-04-06T07:34:23;96432.38;;;3.70;100.00
15229;BME280;7717;47.792;12.076;2023-04-06T07:36:49;96426.53;;;4.06;100.00
15229;BME280;7717;47.792;12.076;2023-04-06T07:39:15;96428.50;;;4.54;100.00
15229;BME280;7717;47.792;12.076;2023-04-06T07:41:41;96423.91;;;4.76;100.00
15229;BME280;7717;47.792;12.076;2023-04-06T07:44:06;96407.19;;;4.84;99.62
15229;BME280;7717;47.792;12.076;2023-04-06T07:46:32;96407.22;;;4.85;98.74
15229;BME280;7717;47.792;12.076;2023-04-06T07:48:58;96384.75;;;5.02;95.34
15229;BME280;7717;47.792;12.076;2023-04-06T07:51:24;96373.91;;;5.10;92.95
15229;BME280;7717;47.792;12.076;2023-04-06T07:53:50;96398.31;;;5.49;94.31
15229;BME280;7717;47.792;12.076;2023-04-06T07:56:16;96376.53;;;5.60;91.74
15229;BME280;7717;47.792;12.076;2023-04-06T07:58:42;96389.56;;;5.80;92.46
15229;BME280;7717;47.792;12.076;2023-04-06T08:01:07;96409.88;;;5.79;94.02
15229;BME280;7717;47.792;12.076;2023-04-06T08:03:34;96376.63;;;6.17;89.84
15229;BME280;7717;47.792;12.076;2023-04-06T08:06:00;96312.00;;;6.60;85.51
15229;BME280;7717;47.792;12.076;2023-04-06T08:08:25;96318.34;;;6.93;84.16
15229;BME280;7717;47.792;12.076;2023-04-06T08:10:51;96279.00;;;7.45;80.86
15229;BME280;7717;47.792;12.076;2023-04-06T08:13:16;96271.44;;;7.54;79.47
15229;BME280;7717;47.792;12.076;2023-04-06T08:15:42;96312.53;;;7.92;81.07
15229;BME280;7717;47.792;12.076;2023-04-06T08:18:08;96290.84;;;8.59;79.01
15229;BME280;7717;47.792;12.076;2023-04-06T08:20:34;96356.41;;;8.70;83.00
15229;BME280;7717;47.792;12.076;2023-04-06T08:23:00;96323.78;;;8.21;79.65
15229;BME280;7717;47.792;12.076;2023-04-06T08:25:25;96354.25;;;8.04;81.18
15229;BME280;7717;47.792;12.076;2023-04-06T08:27:51;96314.09;;;7.80;78.86
15229;BME280;7717;47.792;12.076;2023-04-06T08:30:16;96368.59;;;7.91;82.31
15229;BME280;7717;47.792;12.076;2023-04-06T08:32:44;96361.59;;;7.71;81.44
15229;BME280;7717;47.792;12.076;2023-04-06T08:35:09;96321.97;;;8.06;78.79
15229;BME280;7717;47.792;12.076;2023-04-06T08:37:35;96369.91;;;8.53;81.85
15229;BME280;7717;47.792;12.076;2023-04-06T08:40:00;96393.88;;;8.77;83.24
15229;BME280;7717;47.792;12.076;2023-04-06T08:42:26;96365.94;;;9.05;81.63
15229;BME280;7717;47.792;12.076;2023-04-06T08:44:56;96386.44;;;9.28;82.82
15229;BME280;7717;47.792;12.076;2023-04-06T08:47:22;96422.28;;;9.48;85.42
15229;BME280;7717;47.792;12.076;2023-04-06T08:49:48;96394.25;;;9.66;83.23
15229;BME280;7717;47.792;12.076;2023-04-06T08:52:18;96243.91;;;11.10;73.92
15229;BME280;7717;47.792;12.076;2023-04-06T08:54:44;96271.88;;;14.32;76.11
15229;BME280;7717;47.792;12.076;2023-04-06T08:57:09;96204.34;;;15.03;69.97
15229;BME280;7717;47.792;12.076;2023-04-06T08:59:36;96178.81;;;15.68;66.44
15229;BME280;7717;47.792;12.076;2023-04-06T09:02:03;96115.09;;;16.34;60.60
15229;BME280;7717;47.792;12.076;2023-04-06T09:04:31;96155.47;;;16.68;62.61
15229;BME280;7717;47.792;12.076;2023-04-06T09:06:58;96118.13;;;18.12;60.47
15229;BME280;7717;47.792;12.076;2023-04-06T09:09:24;96156.97;;;17.05;60.97
15229;BME280;7717;47.792;12.076;2023-04-06T09:11:51;96106.31;;;15.06;56.41
15229;BME280;7717;47.792;12.076;2023-04-06T09:14:17;96191.94;;;17.45;63.58
15229;BME280;7717;47.792;12.076;2023-04-06T09:16:57;96122.56;;;18.08;57.84
15229;BME280;7717;47.792;12.076;2023-04-06T09:19:23;96072.34;;;18.12;54.20
15229;BME280;7717;47.792;12.076;2023-04-06T09:22:05;95966.47;;;18.03;47.67
15229;BME280;7717;47.792;12.076;2023-04-06T09:24:45;96035.66;;;17.25;50.27
15229;BME280;7717;47.792;12.076;2023-04-06T09:27:11;96082.34;;;16.34;53.30
15229;BME280;7717;47.792;12.076;2023-04-06T09:29:37;96077.19;;;16.34;52.41
15229;BME280;7717;47.792;12.076;2023-04-06T09:32:06;96079.88;;;18.19;52.79
15229;BME280;7717;47.792;12.076;2023-04-06T09:34:33;96129.47;;;18.57;57.03
15229;BME280;7717;47.792;12.076;2023-04-06T09:36:58;96153.00;;;16.95;57.34
15229;BME280;7717;47.792;12.076;2023-04-06T09:39:24;96106.09;;;17.84;55.55
15229;BME280;7717;47.792;12.076;2023-04-06T09:41:54;96037.81;;;18.80;51.74
15229;BME280;7717;47.792;12.076;2023-04-06T09:44:20;96094.56;;;19.74;55.39
15229;BME280;7717;47.792;12.076;2023-04-06T09:46:47;95984.78;;;17.98;47.15
15229;BME280;7717;47.792;12.076;2023-04-06T09:49:13;96074.81;;;20.11;53.42
15229;BME280;7717;47.792;12.076;2023-04-06T09:51:53;95910.69;;;18.61;43.27
15229;BME280;7717;47.792;12.076;2023-04-06T09:54:23;96044.94;;;20.20;50.71
15229;BME280;7717;47.792;12.076;2023-04-06T09:57:09;95885.09;;;19.73;41.39
15229;BME280;7717;47.792;12.076;2023-04-06T09:59:50;95990.94;;;18.86;46.55
15229;BME280;7717;47.792;12.076;2023-04-06T10:07:59;95975.66;;;19.41;46.11
15229;BME280;7717;47.792;12.076;2023-04-06T10:10:28;96088.03;;;16.47;52.70
15229;BME280;7717;47.792;12.076;2023-04-06T10:12:54;96102.94;;;15.73;52.26
15229;BME280;7717;47.792;12.076;2023-04-06T10:15:21;96134.97;;;15.66;54.55
15229;BME280;7717;47.792;12.076;2023-04-06T10:17:46;96099.75;;;16.87;54.27
15229;BME280;7717;47.792;12.076;2023-04-06T10:20:17;96051.25;;;13.93;48.14
15229;BME280;7717;47.792;12.076;2023-04-06T10:22:57;95995.53;;;18.11;46.39
15229;BME280;7717;47.792;12.076;2023-04-06T10:25:29;95988.97;;;17.54;45.71
15229;BME280;7717;47.792;12.076;2023-04-06T10:28:08;96028.03;;;16.37;47.47
15229;BME280;7717;47.792;12.076;2023-04-06T10:30:35;96030.34;;;18.72;50.48
15229;BME280;7717;47.792;12.076;2023-04-06T10:33:01;95972.44;;;16.81;45.14
15229;BME280;7717;47.792;12.076;2023-04-06T10:35:37;96058.25;;;17.71;51.14
15229;BME280;7717;47.792;12.076;2023-04-06T10:38:04;95980.34;;;19.73;47.21
15229;BME280;7717;47.792;12.076;2023-04-06T10:40:30;95998.94;;;18.35;48.38
15229;BME280;7717;47.792;12.076;2023-04-06T10:43:11;96061.34;;;17.03;49.85
15229;BME280;7717;47.792;12.076;2023-04-06T10:45:38;96024.44;;;20.14;50.64
15229;BME280;7717;47.792;12.076;2023-04-06T10:48:17;95873.81;;;19.16;40.61
15229;BME280;7717;47.792;12.076;2023-04-06T10:50:52;95899.31;;;20.04;42.12
15229;BME280;7717;47.792;12.076;2023-04-06T10:53:22;95850.09;;;22.37;40.58
15229;BME280;7717;47.792;12.076;2023-04-06T10:55:50;95812.25;;;22.60;39.88
15229;BME280;7717;47.792;12.076;2023-04-06T10:58:16;95846.38;;;21.45;40.28
15229;BME280;7717;47.792;12.076;2023-04-06T11:00:48;95826.97;;;22.61;38.52
15229;BME280;7717;47.792;12.076;2023-04-06T11:03:14;95878.75;;;21.06;42.84
15229;BME280;7717;47.792;12.076;2023-04-06T11:05:47;95909.66;;;17.75;40.55
15229;BME280;7717;47.792;12.076;2023-04-06T11:08:26;95972.63;;;16.19;42.69
15229;BME280;7717;47.792;12.076;2023-04-06T11:11:03;96010.09;;;19.45;47.89
15229;BME280;7717;47.792;12.076;2023-04-06T11:16:20;95896.94;;;18.16;39.98
15229;BME280;7717;47.792;12.076;2023-04-06T11:18:57;95823.28;;;18.85;37.06
15229;BME280;7717;47.792;12.076;2023-04-06T11:24:21;95845.38;;;18.73;38.50
15229;BME280;7717;47.792;12.076;2023-04-06T11:26:51;95904.66;;;18.17;41.03
15229;BME280;7717;47.792;12.076;2023-04-06T11:29:18;96031.56;;;17.43;49.61
15229;BME280;7717;47.792;12.076;2023-04-06T11:31:50;96066.31;;;15.60;49.70
15229;BME280;7717;47.792;12.076;2023-04-06T11:36:44;95959.09;;;18.60;44.81
15229;BME280;7717;47.792;12.076;2023-04-06T11:39:10;95854.00;;;19.15;40.05
15229;BME280;7717;47.792;12.076;2023-04-06T11:41:36;95799.78;;;19.85;37.77
15229;BME280;7717;47.792;12.076;2023-04-06T11:44:02;95963.97;;;18.90;47.49
15229;BME280;7717;47.792;12.076;2023-04-06T11:46:28;95933.81;;;20.81;46.29
15229;BME280;7717;47.792;12.076;2023-04-06T11:48:58;95887.31;;;21.26;42.12
15229;BME280;7717;47.792;12.076;2023-04-06T11:51:25;95880.63;;;22.03;43.44
15229;BME280;7717;47.792;12.076;2023-04-06T11:53:51;95914.66;;;21.68;44.44
15229;BME280;7717;47.792;12.076;2023-04-06T11:56:45;95819.97;;;18.61;37.95
15229;BME280;7717;47.792;12.076;2023-04-06T11:59:11;95852.38;;;19.31;40.11
15229;BME280;7717;47.792;12.076;2023-04-06T12:01:45;95762.19;;;20.79;36.28
15229;BME280;7717;47.792;12.076;2023-04-06T12:04:10;95837.25;;;19.60;40.14
15229;BME280;7717;47.792;12.076;2023-04-06T12:06:35;95766.25;;;20.85;37.32
15229;BME280;7717;47.792;12.076;2023-04-06T12:09:01;95831.94;;;19.82;39.70
15229;BME280;7717;47.792;12.076;2023-04-06T12:11:26;95820.50;;;20.93;40.61
15229;BME280;7717;47.792;12.076;2023-04-06T12:13:52;95791.81;;;20.24;37.93
15229;BME280;7717;47.792;12.076;2023-04-06T12:16:18;95793.97;;;19.22;39.50
15229;BME280;7717;47.792;12.076;2023-04-06T12:18:44;95711.94;;;21.90;35.16
15229;BME280;7717;47.792;12.076;2023-04-06T12:21:10;95875.72;;;21.49;43.11
15229;BME280;7717;47.792;12.076;2023-04-06T12:23:35;95856.59;;;17.41;40.76
15229;BME280;7717;47.792;12.076;2023-04-06T12:26:01;95850.94;;;19.64;40.51
15229;BME280;7717;47.792;12.076;2023-04-06T12:28:27;95800.81;;;22.32;39.65
15229;BME280;7717;47.792;12.076;2023-04-06T12:30:53;95751.53;;;24.39;38.88
15229;BME280;7717;47.792;12.076;2023-04-06T12:33:19;95841.47;;;22.81;41.81
15229;BME280;7717;47.792;12.076;2023-04-06T12:35:48;95819.44;;;24.40;42.21
15229;BME280;7717;47.792;12.076;2023-04-06T12:38:13;95811.84;;;21.42;40.12
15229;BME280;7717;47.792;12.076;2023-04-06T12:40:39;95845.78;;;21.40;42.04
15229;BME280;7717;47.792;12.076;2023-04-06T12:43:04;95753.31;;;21.81;37.35
15229;BME280;7717;47.792;12.076;2023-04-06T12:45:31;95807.09;;;21.98;40.34
15229;BME280;7717;47.792;12.076;2023-04-06T12:47:56;95786.19;;;21.51;39.87
15229;BME280;7717;47.792;12.076;2023-04-06T12:50:22;95794.34;;;21.28;38.46
15229;BME280;7717;47.792;12.076;2023-04-06T12:52:48;95773.59;;;22.06;37.56
15229;BME280;7717;47.792;12.076;2023-04-06T12:55:13;95831.69;;;22.24;42.27
15229;BME280;7717;47.792;12.076;2023-04-06T12:57:39;95867.84;;;21.33;44.18
15229;BME280;7717;47.792;12.076;2023-04-06T13:00:06;95849.81;;;16.63;40.46
15229;BME280;7717;47.792;12.076;2023-04-06T13:02:32;96051.44;;;16.01;52.40
15229;BME280;7717;47.792;12.076;2023-04-06T13:04:57;95980.59;;;14.85;47.48